createdAt,value
2018-08-16T00:02:01.256Z,5.37
2018-08-16T00:04:30.057Z,4.87
2018-08-16T00:06:58.938Z,5.87
2018-08-16T00:09:27.672Z,5.60
2018-08-16T00:11:56.275Z,6.40
2018-08-16T00:14:24.762Z,5.53
2018-08-16T00:16:53.537Z,6.10
2018-08-16T00:19:21.949Z,5.70
2018-08-16T00:21:50.513Z,6.40
2018-08-16T00:24:18.969Z,7.40
2018-08-16T00:26:47.811Z,8.00
2018-08-16T00:29:16.311Z,8.93
2018-08-16T00:31:45.068Z,9.30
2018-08-16T00:34:13.480Z,11.40
2018-08-16T00:36:42.058Z,10.87
2018-08-16T00:39:11.014Z,11.90
2018-08-16T00:41:40.665Z,10.53
2018-08-16T00:44:09.134Z,10.73
2018-08-16T00:46:37.659Z,10.03
2018-08-16T00:49:06.418Z,10.13
2018-08-16T00:51:35.976Z,9.30
2018-08-16T00:54:04.883Z,8.77
2018-08-16T00:56:33.871Z,8.23
2018-08-16T00:59:02.294Z,8.30
2018-08-16T01:01:30.787Z,8.23
2018-08-16T01:03:59.580Z,7.00
2018-08-16T01:06:28.127Z,6.63
2018-08-16T01:08:57.166Z,6.40
2018-08-16T01:11:26.242Z,6.20
2018-08-16T01:13:55.471Z,5.87
2018-08-16T01:16:24.060Z,6.50
2018-08-16T01:18:53.139Z,6.33
2018-08-16T01:21:21.987Z,6.87
2018-08-16T01:23:50.541Z,5.83
2018-08-16T01:26:19.087Z,6.40
2018-08-16T01:28:47.919Z,7.03
2018-08-16T01:31:16.713Z,6.37
2018-08-16T01:33:45.639Z,6.50
2018-08-16T01:36:14.220Z,6.20
2018-08-16T01:38:42.702Z,6.90
2018-08-16T01:41:11.255Z,6.90
2018-08-16T01:43:39.720Z,7.00
2018-08-16T01:46:09.005Z,6.97
2018-08-16T01:48:38.671Z,7.17
2018-08-16T01:51:08.613Z,6.87
2018-08-16T01:53:37.397Z,7.33
2018-08-16T01:56:06.862Z,7.43
2018-08-16T01:58:36.660Z,6.83
2018-08-16T02:01:06.314Z,6.80
2018-08-16T02:03:35.627Z,7.33
2018-08-16T02:06:04.803Z,7.27
2018-08-16T02:08:33.304Z,6.47
2018-08-16T02:11:02.003Z,6.80
2018-08-16T02:13:30.614Z,7.60
2018-08-16T02:16:15.645Z,7.53
2018-08-16T02:18:44.085Z,7.80
2018-08-16T02:21:16.178Z,7.60
2018-08-16T02:23:44.575Z,7.60
2018-08-16T02:28:20.862Z,7.30
2018-08-16T02:30:55.309Z,7.53
2018-08-16T02:33:23.880Z,8.20
2018-08-16T02:35:52.624Z,7.63
2018-08-16T02:38:21.127Z,7.87
2018-08-16T02:40:49.684Z,8.33
2018-08-16T02:43:18.094Z,8.13
2018-08-16T02:45:47.173Z,8.33
2018-08-16T02:48:15.622Z,8.10
2018-08-16T02:50:44.190Z,8.10
2018-08-16T02:53:12.647Z,8.17
2018-08-16T02:55:41.652Z,7.53
2018-08-16T02:58:10.123Z,7.70
2018-08-16T03:00:38.818Z,8.40
2018-08-16T03:03:07.526Z,8.50
2018-08-16T03:05:36.431Z,8.53
2018-08-16T03:08:06.429Z,8.00
2018-08-16T03:10:35.009Z,7.90
2018-08-16T03:13:03.540Z,8.07
2018-08-16T03:15:32.135Z,7.23
2018-08-16T03:18:00.660Z,7.10
2018-08-16T03:20:29.238Z,7.00
2018-08-16T03:22:57.663Z,7.10
2018-08-16T03:25:27.022Z,7.17
2018-08-16T03:27:56.240Z,6.97
2018-08-16T03:30:24.794Z,6.77
2018-08-16T03:32:53.829Z,7.00
2018-08-16T03:35:22.557Z,6.63
2018-08-16T03:38:54.287Z,6.77
2018-08-16T03:41:22.759Z,6.23
2018-08-16T03:43:51.277Z,6.80
2018-08-16T03:46:19.883Z,6.83
2018-08-16T03:48:48.379Z,6.80
2018-08-16T03:51:18.990Z,5.97
2018-08-16T03:53:47.483Z,5.87
2018-08-16T03:56:16.180Z,5.80
2018-08-16T03:58:44.979Z,6.70
2018-08-16T04:01:14.688Z,6.43
2018-08-16T04:03:43.455Z,5.70
2018-08-16T04:06:11.982Z,6.20
2018-08-16T04:08:40.443Z,6.20
2018-08-16T04:11:09.988Z,5.80
2018-08-16T04:13:38.411Z,6.27
2018-08-16T04:16:06.935Z,5.50
2018-08-16T04:18:35.431Z,6.03
2018-08-16T04:21:03.954Z,5.93
2018-08-16T04:23:32.443Z,5.80
2018-08-16T04:26:01.328Z,5.83
2018-08-16T04:28:29.898Z,6.10
2018-08-16T04:30:59.439Z,5.90
2018-08-16T04:33:28.642Z,5.90
2018-08-16T04:35:57.805Z,6.27
2018-08-16T04:38:26.415Z,5.67
2018-08-16T04:40:56.677Z,5.83
2018-08-16T04:43:25.102Z,5.90
2018-08-16T04:47:22.869Z,6.00
2018-08-16T04:49:51.464Z,5.50
2018-08-16T04:52:19.992Z,6.13
2018-08-16T04:54:48.535Z,6.43
2018-08-16T04:57:17.058Z,6.17
2018-08-16T04:59:45.518Z,5.80
2018-08-16T05:02:14.087Z,6.13
2018-08-16T05:04:42.682Z,6.00
2018-08-16T05:07:11.476Z,6.00
2018-08-16T05:09:40.069Z,6.07
2018-08-16T05:12:08.830Z,6.27
2018-08-16T05:14:37.459Z,5.90
2018-08-16T05:17:06.089Z,6.10
2018-08-16T05:19:34.761Z,5.93
2018-08-16T05:22:03.309Z,5.80
2018-08-16T05:24:31.829Z,5.63
2018-08-16T05:27:00.275Z,5.60
2018-08-16T05:29:28.894Z,5.70
2018-08-16T05:31:57.937Z,6.00
2018-08-16T05:34:26.715Z,6.00
2018-08-16T05:36:55.230Z,6.07
2018-08-16T05:39:23.804Z,5.87
2018-08-16T05:41:52.262Z,6.07
2018-08-16T05:44:20.785Z,5.80
2018-08-16T05:46:49.269Z,5.87
2018-08-16T05:49:17.863Z,5.40
2018-08-16T05:51:46.309Z,5.07
2018-08-16T05:54:14.795Z,5.60
2018-08-16T05:56:43.196Z,5.90
2018-08-16T05:59:12.333Z,5.57
2018-08-16T06:01:41.019Z,5.87
2018-08-16T06:04:09.860Z,5.70
2018-08-16T06:06:38.370Z,5.30
2018-08-16T06:09:08.988Z,5.67
2018-08-16T06:11:37.494Z,6.10
2018-08-16T06:14:07.882Z,5.87
2018-08-16T06:16:36.440Z,5.57
2018-08-16T06:19:05.337Z,6.17
2018-08-16T06:21:33.881Z,5.87
2018-08-16T06:24:02.531Z,5.83
2018-08-16T06:26:31.213Z,5.33
2018-08-16T06:28:59.779Z,5.93
2018-08-16T06:31:28.978Z,5.03
2018-08-16T06:33:58.190Z,5.10
2018-08-16T06:36:27.252Z,5.10
2018-08-16T06:38:55.793Z,5.00
2018-08-16T06:41:24.425Z,5.53
2018-08-16T06:43:53.005Z,5.07
2018-08-16T06:46:21.616Z,5.20
2018-08-16T06:48:50.397Z,5.03
2018-08-16T06:51:19.279Z,5.20
2018-08-16T06:53:47.855Z,5.30
2018-08-16T06:56:16.338Z,5.07
2018-08-16T06:58:44.918Z,5.00
2018-08-16T07:01:13.465Z,4.33
2018-08-16T07:03:42.120Z,4.27
2018-08-16T07:06:10.522Z,4.10
2018-08-16T07:08:39.218Z,4.40
2018-08-16T07:11:07.675Z,4.30
2018-08-16T07:13:36.236Z,4.30
2018-08-16T07:16:04.726Z,3.87
2018-08-16T07:18:33.385Z,4.33
2018-08-16T07:21:02.173Z,4.50
2018-08-16T07:23:30.726Z,4.53
2018-08-16T07:25:59.404Z,4.60
2018-08-16T07:28:28.671Z,4.33
2018-08-16T07:30:57.266Z,4.33
2018-08-16T07:33:25.874Z,4.00
2018-08-16T07:35:54.406Z,4.37
2018-08-16T07:38:23.614Z,3.93
2018-08-16T07:40:52.103Z,4.43
2018-08-16T07:43:20.667Z,4.00
2018-08-16T07:45:49.658Z,3.87
2018-08-16T07:48:18.711Z,3.80
2018-08-16T07:50:47.198Z,4.40
2018-08-16T07:53:16.145Z,4.50
2018-08-16T07:55:44.567Z,4.30
2018-08-16T07:58:13.211Z,4.10
2018-08-16T08:00:41.609Z,3.70
2018-08-16T08:03:10.501Z,4.07
2018-08-16T08:05:39.268Z,4.07
2018-08-16T08:08:07.902Z,3.40
2018-08-16T08:10:36.351Z,3.73
2018-08-16T08:13:05.295Z,3.37
2018-08-16T08:15:33.870Z,3.40
2018-08-16T08:18:02.955Z,3.80
2018-08-16T08:20:31.738Z,3.70
2018-08-16T08:23:00.347Z,3.73
2018-08-16T08:25:29.898Z,3.60
2018-08-16T08:27:59.172Z,3.60
2018-08-16T08:30:28.390Z,3.70
2018-08-16T08:32:57.568Z,3.97
2018-08-16T08:35:25.938Z,3.70
2018-08-16T08:38:04.758Z,3.53
2018-08-16T08:40:33.207Z,3.50
2018-08-16T08:43:01.693Z,3.93
2018-08-16T08:45:30.479Z,3.50
2018-08-16T08:47:59.738Z,3.43
2018-08-16T08:50:28.256Z,3.67
2018-08-16T08:53:08.226Z,3.30
2018-08-16T08:55:48.230Z,3.20
2018-08-16T08:58:28.678Z,3.30
2018-08-16T09:00:57.821Z,3.23
2018-08-16T09:03:26.425Z,3.40
2018-08-16T09:05:54.960Z,3.00
2018-08-16T09:08:23.490Z,3.27
2018-08-16T09:11:07.643Z,3.50
2018-08-16T09:13:47.665Z,3.67
2018-08-16T09:16:21.502Z,3.30
2018-08-16T09:18:50.205Z,3.60
2018-08-16T09:21:18.974Z,3.50
2018-08-16T09:23:47.490Z,3.37
2018-08-16T09:26:21.285Z,3.07
2018-08-16T09:28:49.956Z,3.30
2018-08-16T09:31:29.737Z,3.43
2018-08-16T09:34:14.379Z,3.50
2018-08-16T09:36:43.296Z,3.70
2018-08-16T09:39:12.225Z,3.13
2018-08-16T09:41:40.887Z,3.70
2018-08-16T09:44:09.799Z,3.13
2018-08-16T09:46:51.960Z,3.27
2018-08-16T09:49:20.477Z,2.90
2018-08-16T09:51:49.169Z,3.00
2018-08-16T09:54:17.803Z,3.10
2018-08-16T09:56:47.035Z,2.93
2018-08-16T09:59:16.137Z,2.77
2018-08-16T10:01:56.756Z,3.00
2018-08-16T10:04:26.162Z,3.10
2018-08-16T10:06:54.666Z,2.97
2018-08-16T10:09:26.050Z,3.20
2018-08-16T10:11:55.319Z,2.70
2018-08-16T10:14:23.700Z,2.90
2018-08-16T10:16:52.238Z,2.80
2018-08-16T10:19:21.362Z,2.80
2018-08-16T10:21:49.884Z,2.70
2018-08-16T10:24:18.367Z,2.53
2018-08-16T10:26:46.859Z,2.70
2018-08-16T10:29:15.352Z,2.70
2018-08-16T10:31:43.983Z,3.10
2018-08-16T10:34:12.506Z,3.00
2018-08-16T10:36:41.105Z,2.70
2018-08-16T10:39:12.781Z,2.77
2018-08-16T10:41:42.554Z,2.73
2018-08-16T10:44:11.497Z,2.63
2018-08-16T10:46:40.058Z,2.70
2018-08-16T10:49:08.892Z,2.70
2018-08-16T10:51:38.515Z,2.40
2018-08-16T10:54:07.069Z,2.57
2018-08-16T10:56:35.764Z,2.37
2018-08-16T10:59:04.239Z,2.80
2018-08-16T11:01:32.756Z,3.07
2018-08-16T11:04:01.509Z,2.60
2018-08-16T11:06:30.125Z,2.90
2018-08-16T11:08:59.841Z,3.17
2018-08-16T11:11:29.008Z,2.53
2018-08-16T11:13:58.360Z,2.57
2018-08-16T11:16:27.229Z,2.77
2018-08-16T11:18:55.981Z,2.50
2018-08-16T11:21:24.699Z,2.33
2018-08-16T11:23:53.164Z,2.67
2018-08-16T11:26:23.604Z,2.70
2018-08-16T11:28:52.056Z,2.80
2018-08-16T11:31:20.555Z,2.57
2018-08-16T11:33:49.033Z,2.40
2018-08-16T11:36:17.604Z,2.70
2018-08-16T11:38:46.090Z,2.70
2018-08-16T11:41:14.816Z,2.33
2018-08-16T11:43:43.256Z,2.33
2018-08-16T11:46:11.928Z,2.23
2018-08-16T11:48:40.414Z,2.60
2018-08-16T11:51:08.952Z,2.40
2018-08-16T11:53:37.340Z,2.80
2018-08-16T11:56:05.911Z,2.60
2018-08-16T11:58:34.445Z,2.50
2018-08-16T12:01:03.275Z,2.30
2018-08-16T12:03:31.754Z,2.63
2018-08-16T12:06:00.355Z,2.50
2018-08-16T12:08:28.812Z,2.60
2018-08-16T12:10:57.967Z,2.73
2018-08-16T12:13:27.312Z,2.60
2018-08-16T12:15:55.835Z,2.33
2018-08-16T12:18:24.282Z,2.60
2018-08-16T12:20:52.867Z,2.50
2018-08-16T12:23:21.400Z,2.50
2018-08-16T12:25:49.950Z,2.07
2018-08-16T12:28:18.363Z,2.47
2018-08-16T12:30:47.083Z,2.37
2018-08-16T12:33:15.914Z,2.57
2018-08-16T12:35:44.368Z,2.23
2018-08-16T12:38:13.002Z,2.30
2018-08-16T12:40:41.601Z,2.37
2018-08-16T12:43:10.279Z,2.33
2018-08-16T12:45:38.903Z,2.57
2018-08-16T12:48:08.183Z,2.30
2018-08-16T12:50:36.659Z,2.37
2018-08-16T12:53:05.491Z,2.30
2018-08-16T12:55:34.040Z,2.33
2018-08-16T12:58:03.198Z,2.20
2018-08-16T13:00:31.744Z,2.50
2018-08-16T13:03:00.507Z,2.70
2018-08-16T13:05:30.085Z,2.50
2018-08-16T13:07:59.380Z,2.53
2018-08-16T13:10:28.747Z,2.57
2018-08-16T13:12:58.106Z,2.50
2018-08-16T13:15:27.355Z,2.40
2018-08-16T13:17:55.872Z,2.33
2018-08-16T13:20:24.416Z,2.80
2018-08-16T13:22:52.893Z,2.60
2018-08-16T13:25:21.524Z,2.70
2018-08-16T13:27:50.070Z,2.63
2018-08-16T13:30:18.666Z,2.60
2018-08-16T13:32:47.060Z,2.63
2018-08-16T13:35:15.650Z,2.50
2018-08-16T13:37:44.130Z,2.70
2018-08-16T13:40:12.695Z,2.80
2018-08-16T13:42:41.111Z,2.50
2018-08-16T13:45:10.059Z,2.53
2018-08-16T13:47:38.521Z,2.73
2018-08-16T13:50:07.131Z,2.10
2018-08-16T13:52:35.659Z,2.53
2018-08-16T13:55:04.684Z,2.60
2018-08-16T13:57:33.597Z,2.90
2018-08-16T14:00:02.101Z,2.80
2018-08-16T14:02:30.620Z,2.90
2018-08-16T14:04:59.777Z,2.60
2018-08-16T14:07:28.657Z,2.80
2018-08-16T14:09:57.710Z,2.53
2018-08-16T14:12:26.201Z,2.60
2018-08-16T14:14:54.839Z,2.70
2018-08-16T14:17:23.347Z,2.40
2018-08-16T14:19:51.970Z,2.70
2018-08-16T14:22:20.537Z,2.60
2018-08-16T14:24:49.074Z,2.30
2018-08-16T14:27:17.548Z,2.60
2018-08-16T14:29:46.019Z,2.70
2018-08-16T14:32:14.535Z,2.60
2018-08-16T14:34:43.244Z,2.40
2018-08-16T14:37:11.988Z,2.77
2018-08-16T14:39:40.656Z,2.70
2018-08-16T14:42:09.100Z,2.40
2018-08-16T14:44:37.607Z,2.40
2018-08-16T14:47:06.675Z,2.50
2018-08-16T14:49:35.137Z,2.33
2018-08-16T14:52:03.782Z,2.70
2018-08-16T14:54:32.260Z,2.50
2018-08-16T14:57:00.800Z,2.40
2018-08-16T14:59:30.008Z,2.80
2018-08-16T15:01:58.993Z,2.80
2018-08-16T15:04:27.995Z,2.73
2018-08-16T15:06:56.473Z,3.10
2018-08-16T15:09:25.071Z,2.90
2018-08-16T15:11:53.520Z,2.53
2018-08-16T15:14:22.143Z,2.80
2018-08-16T15:16:50.709Z,2.60
2018-08-16T15:19:19.211Z,2.30
2018-08-16T15:21:47.669Z,2.50
2018-08-16T15:24:18.789Z,2.40
2018-08-16T15:26:47.440Z,2.70
2018-08-16T15:29:16.013Z,2.50
2018-08-16T15:31:44.399Z,3.30
2018-08-16T15:34:12.857Z,2.60
2018-08-16T15:36:41.375Z,2.33
2018-08-16T15:39:10.799Z,2.87
2018-08-16T15:41:39.535Z,2.90
2018-08-16T15:44:09.321Z,2.77
2018-08-16T15:46:37.714Z,2.80
2018-08-16T15:49:06.350Z,2.40
2018-08-16T15:51:34.832Z,2.70
2018-08-16T15:54:03.391Z,2.83
2018-08-16T15:56:31.860Z,2.57
2018-08-16T15:59:00.486Z,2.53
2018-08-16T16:01:29.700Z,2.40
2018-08-16T16:03:58.655Z,2.30
2018-08-16T16:06:27.874Z,2.73
2018-08-16T16:08:56.933Z,2.40
2018-08-16T16:11:25.472Z,2.50
2018-08-16T16:13:54.014Z,2.50
2018-08-16T16:16:22.743Z,2.40
2018-08-16T16:18:51.483Z,2.40
2018-08-16T16:21:19.931Z,2.60
2018-08-16T16:23:48.388Z,2.37
2018-08-16T16:26:17.189Z,2.33
2018-08-16T16:28:45.715Z,2.27
2018-08-16T16:31:14.163Z,2.20
2018-08-16T16:33:42.682Z,2.67
2018-08-16T16:36:11.101Z,2.27
2018-08-16T16:38:39.671Z,2.10
2018-08-16T16:41:08.162Z,2.27
2018-08-16T16:43:36.676Z,2.63
2018-08-16T16:46:05.431Z,2.17
2018-08-16T16:48:33.919Z,2.50
2018-08-16T16:51:02.345Z,2.37
2018-08-16T16:53:30.800Z,2.23
2018-08-16T16:56:00.656Z,2.40
2018-08-16T16:58:29.690Z,2.70
2018-08-16T17:00:58.984Z,2.33
2018-08-16T17:03:28.108Z,2.80
2018-08-16T17:05:57.073Z,2.47
2018-08-16T17:08:25.570Z,2.53
2018-08-16T17:10:54.007Z,2.30
2018-08-16T17:13:22.390Z,2.37
2018-08-16T17:15:51.147Z,2.40
2018-08-16T17:18:19.578Z,2.30
2018-08-16T17:20:48.010Z,2.40
2018-08-16T17:23:16.574Z,2.57
2018-08-16T17:25:44.963Z,2.30
2018-08-16T17:28:13.374Z,2.63
2018-08-16T17:30:41.795Z,2.50
2018-08-16T17:33:10.269Z,2.40
2018-08-16T17:35:38.664Z,2.27
2018-08-16T17:38:07.095Z,2.23
2018-08-16T17:40:35.530Z,2.50
2018-08-16T17:43:04.318Z,2.30
2018-08-16T17:45:32.771Z,2.43
2018-08-16T17:48:01.226Z,2.10
2018-08-16T17:50:30.889Z,2.50
2018-08-16T17:53:00.109Z,2.50
2018-08-16T17:55:29.378Z,2.53
2018-08-16T17:57:57.972Z,2.20
2018-08-16T18:00:26.422Z,2.37
2018-08-16T18:02:54.937Z,2.53
2018-08-16T18:05:23.396Z,2.33
2018-08-16T18:07:51.934Z,2.70
2018-08-16T18:10:20.373Z,2.77
2018-08-16T18:12:48.842Z,2.30
2018-08-16T18:15:17.432Z,2.50
2018-08-16T18:17:45.908Z,2.47
2018-08-16T18:20:14.597Z,2.70
2018-08-16T18:22:43.089Z,2.60
2018-08-16T18:25:12.068Z,2.60
2018-08-16T18:27:40.539Z,2.60
2018-08-16T18:30:10.554Z,2.80
2018-08-16T18:32:39.521Z,2.50
2018-08-16T18:35:08.389Z,2.70
2018-08-16T18:37:36.837Z,2.47
2018-08-16T18:40:05.934Z,2.50
2018-08-16T18:42:34.519Z,3.17
2018-08-16T18:45:03.203Z,2.90
2018-08-16T18:47:31.643Z,2.60
2018-08-16T18:50:01.128Z,2.70
2018-08-16T18:52:30.244Z,2.50
2018-08-16T18:54:59.457Z,2.23
2018-08-16T18:57:28.413Z,2.67
2018-08-16T18:59:57.136Z,2.77
2018-08-16T19:02:25.658Z,2.53
2018-08-16T19:04:54.208Z,2.30
2018-08-16T19:07:23.037Z,2.60
2018-08-16T19:09:51.589Z,2.40
2018-08-16T19:12:20.037Z,2.80
2018-08-16T19:14:48.637Z,2.40
2018-08-16T19:17:17.354Z,2.80
2018-08-16T19:19:45.849Z,2.70
2018-08-16T19:22:14.674Z,2.70
2018-08-16T19:24:43.244Z,2.83
2018-08-16T19:27:11.803Z,2.90
2018-08-16T19:29:40.306Z,2.83
2018-08-16T19:32:09.324Z,2.67
2018-08-16T19:34:37.905Z,3.20
2018-08-16T19:37:06.422Z,2.70
2018-08-16T19:39:34.848Z,2.77
2018-08-16T19:42:03.311Z,3.10
2018-08-16T19:44:31.791Z,3.23
2018-08-16T19:47:00.222Z,3.23
2018-08-16T19:49:28.946Z,2.90
2018-08-16T19:51:57.933Z,3.00
2018-08-16T19:54:26.397Z,3.03
2018-08-16T19:56:54.903Z,3.37
2018-08-16T19:59:23.331Z,3.20
2018-08-16T20:01:51.718Z,3.20
2018-08-16T20:04:20.189Z,3.40
2018-08-16T20:06:48.679Z,3.20
2018-08-16T20:09:17.126Z,3.20
2018-08-16T20:11:45.551Z,3.27
2018-08-16T20:14:13.999Z,3.30
2018-08-16T20:16:42.397Z,3.43
2018-08-16T20:19:10.866Z,3.40
2018-08-16T20:21:39.369Z,3.83
2018-08-16T20:24:08.153Z,3.40
2018-08-16T20:26:36.761Z,3.03
2018-08-16T20:29:05.566Z,3.50
2018-08-16T20:31:34.370Z,3.47
2018-08-16T20:34:02.835Z,3.63
2018-08-16T20:36:31.338Z,3.23
2018-08-16T20:39:00.426Z,3.60
2018-08-16T20:41:29.645Z,3.57
2018-08-16T20:43:58.748Z,3.70
2018-08-16T20:46:28.153Z,3.70
2018-08-16T20:48:56.659Z,3.20
2018-08-16T20:51:25.490Z,3.60
2018-08-16T20:53:54.033Z,3.20
2018-08-16T20:56:22.417Z,3.50
2018-08-16T20:58:50.948Z,3.43
2018-08-16T21:01:19.784Z,3.57
2018-08-16T21:03:48.311Z,3.57
2018-08-16T21:06:16.804Z,3.17
2018-08-16T21:08:45.210Z,3.60
2018-08-16T21:11:13.687Z,3.40
2018-08-16T21:13:42.123Z,3.40
2018-08-16T21:16:10.502Z,3.33
2018-08-16T21:18:38.935Z,3.30
2018-08-16T21:21:07.695Z,3.10
2018-08-16T21:32:15.818Z,3.73
2018-08-16T21:34:44.356Z,3.33
2018-08-16T21:37:12.981Z,3.20
2018-08-16T21:39:41.378Z,3.23
2018-08-16T21:42:09.842Z,3.23
2018-08-16T21:44:38.198Z,3.03
2018-08-16T21:47:07.098Z,3.37
2018-08-16T21:49:35.588Z,3.30
2018-08-16T21:52:04.151Z,2.97
2018-08-16T21:54:32.728Z,3.00
2018-08-16T21:57:01.243Z,3.40
2018-08-16T21:59:30.493Z,2.67
2018-08-16T22:04:08.465Z,3.10
2018-08-16T22:06:48.223Z,2.80
2018-08-16T22:09:16.695Z,3.03
2018-08-16T22:11:45.162Z,2.93
2018-08-16T22:14:13.952Z,3.10
2018-08-16T22:16:42.435Z,3.10
2018-08-16T22:19:10.909Z,2.93
2018-08-16T22:21:39.424Z,3.37
2018-08-16T22:24:07.958Z,3.17
2018-08-16T22:26:36.397Z,2.80
2018-08-16T22:29:05.212Z,3.13
2018-08-16T22:31:33.647Z,3.40
2018-08-16T22:34:02.340Z,2.93
2018-08-16T22:36:30.964Z,2.80
2018-08-16T22:39:00.207Z,3.10
2018-08-16T22:41:29.442Z,3.20
2018-08-16T22:43:58.554Z,3.00
2018-08-16T22:46:27.681Z,3.00
2018-08-16T22:48:56.081Z,3.10
2018-08-16T22:51:24.649Z,2.83
2018-08-16T22:53:53.058Z,3.13
2018-08-16T22:56:21.567Z,3.37
2018-08-16T22:58:50.007Z,2.77
2018-08-16T23:01:18.560Z,3.10
2018-08-16T23:03:46.988Z,2.87
2018-08-16T23:06:15.545Z,2.97
2018-08-16T23:08:44.300Z,3.30
2018-08-16T23:11:12.771Z,3.00
2018-08-16T23:13:41.195Z,2.90
2018-08-16T23:16:10.047Z,2.93
2018-08-16T23:18:38.491Z,2.73
2018-08-16T23:21:08.022Z,3.07
2018-08-16T23:23:36.414Z,3.20
2018-08-16T23:26:04.930Z,2.83
2018-08-16T23:28:33.304Z,2.83
2018-08-16T23:31:01.816Z,3.10
2018-08-16T23:33:30.266Z,2.80
2018-08-16T23:35:59.311Z,2.97
2018-08-16T23:38:28.123Z,2.80
2018-08-16T23:40:57.677Z,3.10
2018-08-16T23:43:26.120Z,2.80
2018-08-16T23:45:54.713Z,3.00
2018-08-16T23:48:28.988Z,2.77
2018-08-16T23:50:58.240Z,3.07
2018-08-16T23:53:26.934Z,2.80
2018-08-16T23:55:56.387Z,2.83
2018-08-16T23:58:24.939Z,2.93
